This is the latest recevied weather packets stored in our database for station/object EA3FHP. If no packets are shown the sender has not sent any weather packets the latest 10 day(s).
| Time | Temp. | Humidity | Pressure | Rain* | Wind** | Luminosity | Snow |
|---|---|---|---|---|---|---|---|
| 1777471203 | 23.33° C | 54% | 1013.8 hPa | 0 mm | - | - | - |
| 1777470603 | 23.33° C | 54% | 1013.9 hPa | 0 mm | - | - | - |
| 1777470003 | 22.78° C | 52% | 1014.1 hPa | 0 mm | - | - | - |
| 1777469427 | 22.22° C | 57% | 1013.9 hPa | 0 mm | - | - | - |
| 1777408203 | 12.78° C | 76% | 1014.2 hPa | 0 mm | - | - | - |
| 1777407003 | 12.78° C | 77% | 1014.1 hPa | 0 mm | - | - | - |
| 1777406403 | 12.78° C | 76% | 1013.8 hPa | 0 mm | - | - | - |
| 1777405803 | 13.33° C | 75% | 1013.5 hPa | 0 mm | - | - | - |
| 1777405203 | 13.89° C | 71% | 1013.5 hPa | 0 mm | - | - | - |
| 1777404603 | 13.89° C | 70% | 1013.4 hPa | 0 mm | - | - | - |
| 1777404003 | 14.44° C | 68% | 1013.4 hPa | 0 mm | - | - | - |
| 1777403403 | 14.44° C | 67% | 1013.2 hPa | 0 mm | - | - | - |
| 1777402803 | 15° C | 66% | 1013.3 hPa | 0 mm | - | - | - |
| 1777402203 | 16.11° C | 62% | 1013.3 hPa | 0 mm | - | - | - |
| 1777401603 | 16.11° C | 61% | 1013.1 hPa | 0 mm | - | - | - |
| 1777401003 | 16.67° C | 58% | 1013.3 hPa | 0 mm | - | - | - |
| 1777400403 | 16.67° C | 58% | 1013.1 hPa | 0 mm | - | - | - |
| 1777399803 | 17.78° C | 58% | 1013.3 hPa | 0 mm | - | - | - |
| 1777399203 | 17.78° C | 54% | 1013.4 hPa | 0 mm | - | - | - |
| 1777398603 | 18.33° C | 54% | 1013.3 hPa | 0 mm | - | - | - |
| 1777398003 | 19.44° C | 56% | 1013.5 hPa | 0 mm | - | - | - |
| 1777397403 | 20.56° C | 53% | 1013.4 hPa | 0 mm | - | - | - |
| 1777396803 | 20° C | 52% | 1013.3 hPa | 0 mm | - | - | - |
| 1777396203 | 21.11° C | 49% | 1013.4 hPa | 0 mm | - | - | - |
| 1777395603 | 21.11° C | 49% | 1013.4 hPa | 0 mm | - | - | - |
* Rain latest hour (hover to see other rain measurements)
** Current wind speed in m/s (hover to see current wind gust speed)